sensor_id;sensor_type;location;lat;lon;timestamp;pressure;altitude;pressure_sealevel;temperature;humidity
21273;BME280;36726;52.328;10.552;2022-12-11T00:00:06;100176.53;;;1.41;69.38
21273;BME280;36726;52.328;10.552;2022-12-11T00:02:33;100171.38;;;1.42;69.63
21273;BME280;36726;52.328;10.552;2022-12-11T00:05:00;100179.25;;;1.44;69.56
21273;BME280;36726;52.328;10.552;2022-12-11T00:07:26;100176.72;;;1.45;69.91
21273;BME280;36726;52.328;10.552;2022-12-11T00:09:53;100179.31;;;1.45;70.25
21273;BME280;36726;52.328;10.552;2022-12-11T00:12:20;100172.25;;;1.43;70.15
21273;BME280;36726;52.328;10.552;2022-12-11T00:14:46;100180.97;;;1.43;69.76
21273;BME280;36726;52.328;10.552;2022-12-11T00:17:13;100173.16;;;1.43;69.76
21273;BME280;36726;52.328;10.552;2022-12-11T00:19:40;100168.84;;;1.44;69.34
21273;BME280;36726;52.328;10.552;2022-12-11T00:22:06;100172.41;;;1.46;69.77
21273;BME280;36726;52.328;10.552;2022-12-11T00:24:33;100162.09;;;1.49;69.55
21273;BME280;36726;52.328;10.552;2022-12-11T00:27:00;100164.69;;;1.49;69.44
21273;BME280;36726;52.328;10.552;2022-12-11T00:29:26;100167.41;;;1.52;69.56
21273;BME280;36726;52.328;10.552;2022-12-11T00:31:53;100165.66;;;1.51;69.33
21273;BME280;36726;52.328;10.552;2022-12-11T00:34:20;100156.88;;;1.49;69.01
21273;BME280;36726;52.328;10.552;2022-12-11T00:36:46;100157.72;;;1.48;69.38
21273;BME280;36726;52.328;10.552;2022-12-11T00:39:14;100144.63;;;1.46;69.22
21273;BME280;36726;52.328;10.552;2022-12-11T00:41:42;100149.00;;;1.47;69.43
21273;BME280;36726;52.328;10.552;2022-12-11T00:44:08;100155.91;;;1.47;69.20
21273;BME280;36726;52.328;10.552;2022-12-11T00:46:35;100156.75;;;1.46;69.18
21273;BME280;36726;52.328;10.552;2022-12-11T00:49:02;100146.19;;;1.43;69.03
21273;BME280;36726;52.328;10.552;2022-12-11T00:51:28;100160.97;;;1.42;69.45
21273;BME280;36726;52.328;10.552;2022-12-11T00:53:55;100152.25;;;1.42;69.97
21273;BME280;36726;52.328;10.552;2022-12-11T00:56:22;100161.91;;;1.44;69.70
21273;BME280;36726;52.328;10.552;2022-12-11T00:58:48;100163.69;;;1.45;69.72
21273;BME280;36726;52.328;10.552;2022-12-11T01:01:21;100167.03;;;1.43;69.19
21273;BME280;36726;52.328;10.552;2022-12-11T01:03:51;100164.38;;;1.41;68.91
21273;BME280;36726;52.328;10.552;2022-12-11T01:06:20;100161.72;;;1.40;69.15
21273;BME280;36726;52.328;10.552;2022-12-11T01:08:47;100172.06;;;1.38;69.01
21273;BME280;36726;52.328;10.552;2022-12-11T01:11:34;100171.16;;;1.38;69.58
21273;BME280;36726;52.328;10.552;2022-12-11T01:14:01;100170.22;;;1.36;69.60
21273;BME280;36726;52.328;10.552;2022-12-11T01:16:28;100168.44;;;1.35;69.39
21273;BME280;36726;52.328;10.552;2022-12-11T01:18:55;100167.53;;;1.34;69.75
21273;BME280;36726;52.328;10.552;2022-12-11T01:21:22;100170.22;;;1.36;70.22
21273;BME280;36726;52.328;10.552;2022-12-11T01:23:50;100172.00;;;1.37;69.88
21273;BME280;36726;52.328;10.552;2022-12-11T01:26:17;100176.38;;;1.38;69.89
21273;BME280;36726;52.328;10.552;2022-12-11T01:28:44;100180.78;;;1.39;69.67
21273;BME280;36726;52.328;10.552;2022-12-11T01:31:12;100181.66;;;1.39;69.25
21273;BME280;36726;52.328;10.552;2022-12-11T01:33:39;100176.38;;;1.38;69.35
21273;BME280;36726;52.328;10.552;2022-12-11T01:36:09;100172.91;;;1.37;69.55
21273;BME280;36726;52.328;10.552;2022-12-11T01:38:36;100174.63;;;1.37;69.97
21273;BME280;36726;52.328;10.552;2022-12-11T01:41:03;100174.56;;;1.35;69.72
21273;BME280;36726;52.328;10.552;2022-12-11T01:43:30;100173.66;;;1.35;69.50
21273;BME280;36726;52.328;10.552;2022-12-11T01:45:56;100170.09;;;1.33;70.20
21273;BME280;36726;52.328;10.552;2022-12-11T01:48:26;100168.31;;;1.32;69.68
21273;BME280;36726;52.328;10.552;2022-12-11T01:50:56;100169.91;;;1.28;69.50
21273;BME280;36726;52.328;10.552;2022-12-11T01:53:30;100169.00;;;1.28;69.54
21273;BME280;36726;52.328;10.552;2022-12-11T01:55:59;100169.81;;;1.27;69.67
21273;BME280;36726;52.328;10.552;2022-12-11T01:58:39;100174.16;;;1.26;69.64
21273;BME280;36726;52.328;10.552;2022-12-11T02:01:10;100167.09;;;1.24;69.70
21273;BME280;36726;52.328;10.552;2022-12-11T02:03:40;100174.91;;;1.24;69.96
21273;BME280;36726;52.328;10.552;2022-12-11T02:08:56;100164.50;;;1.24;70.51
21273;BME280;36726;52.328;10.552;2022-12-11T02:11:30;100164.50;;;1.24;70.22
21273;BME280;36726;52.328;10.552;2022-12-11T02:14:19;100164.38;;;1.21;70.37
21273;BME280;36726;52.328;10.552;2022-12-11T02:16:55;100174.63;;;1.18;70.05
21273;BME280;36726;52.328;10.552;2022-12-11T02:22:14;100170.03;;;1.12;69.70
21273;BME280;36726;52.328;10.552;2022-12-11T02:25:01;100166.56;;;1.12;69.88
21273;BME280;36726;52.328;10.552;2022-12-11T02:27:43;100170.81;;;1.10;69.88
21273;BME280;36726;52.328;10.552;2022-12-11T02:30:14;100179.31;;;1.05;70.41
21273;BME280;36726;52.328;10.552;2022-12-11T02:32:49;100164.38;;;1.01;70.34
21273;BME280;36726;52.328;10.552;2022-12-11T02:35:26;100166.84;;;0.98;70.47
21273;BME280;36726;52.328;10.552;2022-12-11T02:37:57;100169.47;;;0.98;70.64
21273;BME280;36726;52.328;10.552;2022-12-11T02:40:29;100172.00;;;0.97;70.54
21273;BME280;36726;52.328;10.552;2022-12-11T02:42:59;100164.13;;;0.95;70.61
21273;BME280;36726;52.328;10.552;2022-12-11T02:45:28;100168.38;;;0.93;70.98
21273;BME280;36726;52.328;10.552;2022-12-11T02:47:57;100162.25;;;0.93;71.44
21273;BME280;36726;52.328;10.552;2022-12-11T02:50:26;100168.38;;;0.93;71.60
21273;BME280;36726;52.328;10.552;2022-12-11T02:52:55;100167.59;;;0.96;71.54
21273;BME280;36726;52.328;10.552;2022-12-11T02:55:24;100156.44;;;0.98;71.94
21273;BME280;36726;52.328;10.552;2022-12-11T02:57:58;100161.72;;;1.00;71.66
21273;BME280;36726;52.328;10.552;2022-12-11T03:00:27;100154.69;;;0.97;71.59
21273;BME280;36726;52.328;10.552;2022-12-11T03:02:54;100157.97;;;0.93;71.71
21273;BME280;36726;52.328;10.552;2022-12-11T03:05:20;100156.16;;;0.92;72.08
21273;BME280;36726;52.328;10.552;2022-12-11T03:07:47;100157.81;;;0.90;72.11
21273;BME280;36726;52.328;10.552;2022-12-11T03:10:16;100161.25;;;0.89;72.22
21273;BME280;36726;52.328;10.552;2022-12-11T03:12:47;100155.13;;;0.89;72.12
21273;BME280;36726;52.328;10.552;2022-12-11T03:15:21;100158.63;;;0.89;72.29
21273;BME280;36726;52.328;10.552;2022-12-11T03:17:58;100160.34;;;0.89;71.66
21273;BME280;36726;52.328;10.552;2022-12-11T03:20:38;100154.19;;;0.87;72.44
21273;BME280;36726;52.328;10.552;2022-12-11T03:28:38;100154.47;;;0.74;71.81
21273;BME280;36726;52.328;10.552;2022-12-11T03:31:11;100152.56;;;0.70;72.00
21273;BME280;36726;52.328;10.552;2022-12-11T03:33:43;100153.28;;;0.67;72.29
21273;BME280;36726;52.328;10.552;2022-12-11T03:36:16;100157.53;;;0.65;72.78
21273;BME280;36726;52.328;10.552;2022-12-11T03:38:53;100157.53;;;0.65;72.64
21273;BME280;36726;52.328;10.552;2022-12-11T03:41:23;100156.50;;;0.62;72.56
21273;BME280;36726;52.328;10.552;2022-12-11T03:43:53;100149.53;;;0.61;72.88
21273;BME280;36726;52.328;10.552;2022-12-11T03:46:26;100153.03;;;0.61;73.26
21273;BME280;36726;52.328;10.552;2022-12-11T03:49:00;100151.38;;;0.63;73.41
21273;BME280;36726;52.328;10.552;2022-12-11T03:51:28;100144.53;;;0.65;73.00
21273;BME280;36726;52.328;10.552;2022-12-11T03:53:57;100142.81;;;0.66;73.20
21273;BME280;36726;52.328;10.552;2022-12-11T03:56:26;100141.84;;;0.64;73.33
21273;BME280;36726;52.328;10.552;2022-12-11T03:58:54;100146.16;;;0.63;73.04
21273;BME280;36726;52.328;10.552;2022-12-11T04:01:21;100146.09;;;0.62;73.04
21273;BME280;36726;52.328;10.552;2022-12-11T04:03:48;100139.94;;;0.60;72.94
21273;BME280;36726;52.328;10.552;2022-12-11T04:06:14;100145.06;;;0.58;72.82
21273;BME280;36726;52.328;10.552;2022-12-11T04:08:41;100146.72;;;0.56;73.27
21273;BME280;36726;52.328;10.552;2022-12-11T04:11:08;100145.75;;;0.54;72.86
21273;BME280;36726;52.328;10.552;2022-12-11T04:13:53;100143.97;;;0.53;73.32
21273;BME280;36726;52.328;10.552;2022-12-11T04:16:39;100149.06;;;0.50;73.05
21273;BME280;36726;52.328;10.552;2022-12-11T04:19:05;100149.88;;;0.49;73.35
21273;BME280;36726;52.328;10.552;2022-12-11T04:21:50;100148.91;;;0.47;73.24
21273;BME280;36726;52.328;10.552;2022-12-11T04:24:36;100155.00;;;0.48;73.82
21273;BME280;36726;52.328;10.552;2022-12-11T04:27:02;100147.94;;;0.45;73.55
21273;BME280;36726;52.328;10.552;2022-12-11T04:29:29;100144.47;;;0.45;74.05
21273;BME280;36726;52.328;10.552;2022-12-11T04:31:55;100146.22;;;0.46;73.88
21273;BME280;36726;52.328;10.552;2022-12-11T04:34:22;100147.13;;;0.46;74.16
21273;BME280;36726;52.328;10.552;2022-12-11T04:36:49;100141.94;;;0.46;74.43
21273;BME280;36726;52.328;10.552;2022-12-11T04:39:16;100147.00;;;0.43;74.15
21273;BME280;36726;52.328;10.552;2022-12-11T04:41:42;100138.97;;;0.39;74.35
21273;BME280;36726;52.328;10.552;2022-12-11T04:44:09;100141.50;;;0.37;73.80
21273;BME280;36726;52.328;10.552;2022-12-11T04:46:35;100130.97;;;0.34;74.77
21273;BME280;36726;52.328;10.552;2022-12-11T04:49:02;100128.38;;;0.34;74.69
21273;BME280;36726;52.328;10.552;2022-12-11T04:51:29;100127.34;;;0.31;74.57
21273;BME280;36726;52.328;10.552;2022-12-11T04:53:57;100129.94;;;0.31;74.88
21273;BME280;36726;52.328;10.552;2022-12-11T04:56:24;100131.78;;;0.33;75.42
21273;BME280;36726;52.328;10.552;2022-12-11T04:58:50;100135.41;;;0.37;75.12
21273;BME280;36726;52.328;10.552;2022-12-11T05:01:21;100130.22;;;0.37;75.19
21273;BME280;36726;52.328;10.552;2022-12-11T05:03:48;100137.22;;;0.38;75.26
21273;BME280;36726;52.328;10.552;2022-12-11T05:06:15;100136.31;;;0.37;74.96
21273;BME280;36726;52.328;10.552;2022-12-11T05:08:42;100134.50;;;0.36;74.90
21273;BME280;36726;52.328;10.552;2022-12-11T05:11:12;100139.72;;;0.36;74.86
21273;BME280;36726;52.328;10.552;2022-12-11T05:13:39;100137.28;;;0.39;75.30
21273;BME280;36726;52.328;10.552;2022-12-11T05:16:08;100139.88;;;0.39;75.11
21273;BME280;36726;52.328;10.552;2022-12-11T05:18:35;100135.56;;;0.40;75.37
21273;BME280;36726;52.328;10.552;2022-12-11T05:21:05;100137.41;;;0.42;75.23
21273;BME280;36726;52.328;10.552;2022-12-11T05:23:32;100133.22;;;0.46;75.45
21273;BME280;36726;52.328;10.552;2022-12-11T05:26:02;100129.72;;;0.45;75.25
21273;BME280;36726;52.328;10.552;2022-12-11T05:28:31;100128.84;;;0.45;75.37
21273;BME280;36726;52.328;10.552;2022-12-11T05:31:01;100128.03;;;0.46;74.97
21273;BME280;36726;52.328;10.552;2022-12-11T05:33:28;100128.97;;;0.48;74.82
21273;BME280;36726;52.328;10.552;2022-12-11T05:35:55;100128.09;;;0.47;75.12
21273;BME280;36726;52.328;10.552;2022-12-11T05:38:22;100117.69;;;0.47;75.13
21273;BME280;36726;52.328;10.552;2022-12-11T05:41:04;100120.22;;;0.46;75.21
21273;BME280;36726;52.328;10.552;2022-12-11T05:43:34;100120.16;;;0.44;74.88
21273;BME280;36726;52.328;10.552;2022-12-11T05:48:35;100125.00;;;0.37;75.22
21273;BME280;36726;52.328;10.552;2022-12-11T05:51:03;100134.50;;;0.36;75.26
21273;BME280;36726;52.328;10.552;2022-12-11T05:53:30;100132.81;;;0.37;75.44
21273;BME280;36726;52.328;10.552;2022-12-11T05:56:05;100122.56;;;0.40;75.32
21273;BME280;36726;52.328;10.552;2022-12-11T05:58:33;100117.44;;;0.41;75.66
21273;BME280;36726;52.328;10.552;2022-12-11T06:01:00;100127.97;;;0.44;75.53
21273;BME280;36726;52.328;10.552;2022-12-11T06:03:27;100125.47;;;0.47;75.69
21273;BME280;36726;52.328;10.552;2022-12-11T06:05:53;100125.59;;;0.49;75.45
21273;BME280;36726;52.328;10.552;2022-12-11T06:08:20;100122.22;;;0.51;75.63
21273;BME280;36726;52.328;10.552;2022-12-11T06:10:47;100115.31;;;0.52;74.99
21273;BME280;36726;52.328;10.552;2022-12-11T06:13:15;100120.63;;;0.55;75.07
21273;BME280;36726;52.328;10.552;2022-12-11T06:15:42;100116.31;;;0.55;75.10
21273;BME280;36726;52.328;10.552;2022-12-11T06:18:09;100123.28;;;0.56;75.24
21273;BME280;36726;52.328;10.552;2022-12-11T06:20:36;100123.28;;;0.56;74.88
21273;BME280;36726;52.328;10.552;2022-12-11T06:23:02;100120.63;;;0.55;74.76
21273;BME280;36726;52.328;10.552;2022-12-11T06:25:30;100128.38;;;0.53;74.33
21273;BME280;36726;52.328;10.552;2022-12-11T06:27:58;100134.41;;;0.52;74.71
21273;BME280;36726;52.328;10.552;2022-12-11T06:30:24;100118.69;;;0.51;74.93
21273;BME280;36726;52.328;10.552;2022-12-11T06:33:05;100126.59;;;0.52;74.31
21273;BME280;36726;52.328;10.552;2022-12-11T06:35:32;100129.94;;;0.50;74.90
21273;BME280;36726;52.328;10.552;2022-12-11T06:38:07;100133.38;;;0.49;74.93
21273;BME280;36726;52.328;10.552;2022-12-11T06:40:34;100134.25;;;0.49;74.66
21273;BME280;36726;52.328;10.552;2022-12-11T06:43:00;100129.88;;;0.48;74.65
21273;BME280;36726;52.328;10.552;2022-12-11T06:45:27;100130.84;;;0.50;74.90
21273;BME280;36726;52.328;10.552;2022-12-11T06:47:54;100128.25;;;0.50;75.17
21273;BME280;36726;52.328;10.552;2022-12-11T06:50:20;100128.25;;;0.50;74.69
21273;BME280;36726;52.328;10.552;2022-12-11T06:52:47;100131.66;;;0.49;75.04
21273;BME280;36726;52.328;10.552;2022-12-11T06:55:14;100132.56;;;0.50;74.97
21273;BME280;36726;52.328;10.552;2022-12-11T06:57:40;100130.84;;;0.50;74.30
21273;BME280;36726;52.328;10.552;2022-12-11T07:00:08;100137.00;;;0.52;74.48
21273;BME280;36726;52.328;10.552;2022-12-11T07:02:34;100143.09;;;0.53;74.55
21273;BME280;36726;52.328;10.552;2022-12-11T07:05:01;100137.81;;;0.51;74.53
21273;BME280;36726;52.328;10.552;2022-12-11T07:07:28;100133.38;;;0.49;74.22
21273;BME280;36726;52.328;10.552;2022-12-11T07:09:55;100146.28;;;0.47;74.05
21273;BME280;36726;52.328;10.552;2022-12-11T07:12:22;100137.53;;;0.45;74.33
21273;BME280;36726;52.328;10.552;2022-12-11T07:14:48;100142.59;;;0.42;74.01
21273;BME280;36726;52.328;10.552;2022-12-11T07:17:15;100146.09;;;0.43;74.08
21273;BME280;36726;52.328;10.552;2022-12-11T07:19:42;100152.22;;;0.43;73.91
21273;BME280;36726;52.328;10.552;2022-12-11T07:22:08;100151.38;;;0.44;74.32
21273;BME280;36726;52.328;10.552;2022-12-11T07:24:35;100148.72;;;0.43;74.27
21273;BME280;36726;52.328;10.552;2022-12-11T07:27:02;100147.81;;;0.42;74.13
21273;BME280;36726;52.328;10.552;2022-12-11T07:29:29;100156.50;;;0.43;73.83
21273;BME280;36726;52.328;10.552;2022-12-11T07:31:56;100161.72;;;0.43;74.36
21273;BME280;36726;52.328;10.552;2022-12-11T07:34:22;100160.81;;;0.42;74.07
21273;BME280;36726;52.328;10.552;2022-12-11T07:36:49;100145.13;;;0.41;74.50
21273;BME280;36726;52.328;10.552;2022-12-11T07:39:15;100148.56;;;0.40;74.27
21273;BME280;36726;52.328;10.552;2022-12-11T07:41:42;100153.56;;;0.35;74.38
21273;BME280;36726;52.328;10.552;2022-12-11T07:44:09;100153.41;;;0.32;73.90
21273;BME280;36726;52.328;10.552;2022-12-11T07:46:36;100154.28;;;0.33;74.33
21273;BME280;36726;52.328;10.552;2022-12-11T07:49:04;100155.31;;;0.36;74.53
21273;BME280;36726;52.328;10.552;2022-12-11T07:51:34;100158.00;;;0.38;74.51
21273;BME280;36726;52.328;10.552;2022-12-11T07:54:07;100153.69;;;0.38;74.74
21273;BME280;36726;52.328;10.552;2022-12-11T07:56:33;100149.50;;;0.42;74.88
21273;BME280;36726;52.328;10.552;2022-12-11T07:59:02;100147.88;;;0.44;74.64
21273;BME280;36726;52.328;10.552;2022-12-11T08:01:31;100143.50;;;0.43;75.17
21273;BME280;36726;52.328;10.552;2022-12-11T08:03:58;100144.31;;;0.42;74.91
21273;BME280;36726;52.328;10.552;2022-12-11T08:06:30;100138.97;;;0.39;74.62
21273;BME280;36726;52.328;10.552;2022-12-11T08:08:58;100140.78;;;0.40;75.09
21273;BME280;36726;52.328;10.552;2022-12-11T08:11:26;100143.16;;;0.35;75.06
21273;BME280;36726;52.328;10.552;2022-12-11T08:13:53;100137.53;;;0.26;75.37
21273;BME280;36726;52.328;10.552;2022-12-11T08:16:21;100137.03;;;0.16;74.83
21273;BME280;36726;52.328;10.552;2022-12-11T08:18:48;100141.88;;;0.08;75.62
21273;BME280;36726;52.328;10.552;2022-12-11T08:21:17;100130.28;;;0.02;75.70
21273;BME280;36726;52.328;10.552;2022-12-11T08:23:44;100138.69;;;-0.04;75.81
21273;BME280;36726;52.328;10.552;2022-12-11T08:26:20;100133.88;;;-0.14;75.73
21273;BME280;36726;52.328;10.552;2022-12-11T08:28:47;100148.28;;;-0.21;76.45
21273;BME280;36726;52.328;10.552;2022-12-11T08:31:14;100151.41;;;-0.28;76.66
21273;BME280;36726;52.328;10.552;2022-12-11T08:33:41;100137.31;;;-0.33;77.34
21273;BME280;36726;52.328;10.552;2022-12-11T08:36:10;100138.88;;;-0.36;77.58
21273;BME280;36726;52.328;10.552;2022-12-11T08:38:37;100136.09;;;-0.39;77.69
21273;BME280;36726;52.328;10.552;2022-12-11T08:43:35;100139.94;;;-0.49;77.82
21273;BME280;36726;52.328;10.552;2022-12-11T08:46:01;100135.38;;;-0.54;78.11
21273;BME280;36726;52.328;10.552;2022-12-11T08:48:28;100134.22;;;-0.59;78.24
21273;BME280;36726;52.328;10.552;2022-12-11T08:50:58;100137.34;;;-0.66;78.66
21273;BME280;36726;52.328;10.552;2022-12-11T08:53:27;100131.03;;;-0.71;78.19
21273;BME280;36726;52.328;10.552;2022-12-11T08:55:59;100130.88;;;-0.74;78.17
21273;BME280;36726;52.328;10.552;2022-12-11T08:58:25;100132.50;;;-0.76;77.70
21273;BME280;36726;52.328;10.552;2022-12-11T09:00:52;100137.63;;;-0.78;77.88
21273;BME280;36726;52.328;10.552;2022-12-11T09:03:18;100131.53;;;-0.78;78.20
21273;BME280;36726;52.328;10.552;2022-12-11T09:05:45;100135.13;;;-0.76;78.55
21273;BME280;36726;52.328;10.552;2022-12-11T09:08:11;100136.09;;;-0.74;79.00
21273;BME280;36726;52.328;10.552;2022-12-11T09:10:38;100136.22;;;-0.71;78.82
21273;BME280;36726;52.328;10.552;2022-12-11T09:13:05;100141.88;;;-0.62;79.54
21273;BME280;36726;52.328;10.552;2022-12-11T09:15:31;100138.09;;;-0.51;79.58
21273;BME280;36726;52.328;10.552;2022-12-11T09:17:58;100134.16;;;-0.43;78.81
21273;BME280;36726;52.328;10.552;2022-12-11T09:20:24;100139.59;;;-0.39;78.63
21273;BME280;36726;52.328;10.552;2022-12-11T09:22:51;100138.03;;;-0.35;78.18
21273;BME280;36726;52.328;10.552;2022-12-11T09:25:17;100147.59;;;-0.34;77.70
21273;BME280;36726;52.328;10.552;2022-12-11T09:27:44;100137.06;;;-0.37;77.67
21273;BME280;36726;52.328;10.552;2022-12-11T09:30:11;100130.09;;;-0.38;77.81
21273;BME280;36726;52.328;10.552;2022-12-11T09:32:38;100136.16;;;-0.38;77.71
21273;BME280;36726;52.328;10.552;2022-12-11T09:35:05;100132.84;;;-0.35;77.01
21273;BME280;36726;52.328;10.552;2022-12-11T09:37:32;100123.34;;;-0.35;77.54
21273;BME280;36726;52.328;10.552;2022-12-11T09:39:59;100132.84;;;-0.35;77.23
21273;BME280;36726;52.328;10.552;2022-12-11T09:45:13;100118.94;;;-0.36;76.97
21273;BME280;36726;52.328;10.552;2022-12-11T09:47:47;100110.34;;;-0.35;77.08
21273;BME280;36726;52.328;10.552;2022-12-11T09:50:22;100113.81;;;-0.34;76.87
21273;BME280;36726;52.328;10.552;2022-12-11T09:53:09;100110.44;;;-0.33;76.83
21273;BME280;36726;52.328;10.552;2022-12-11T09:56:16;100104.47;;;-0.31;76.88
21273;BME280;36726;52.328;10.552;2022-12-11T10:02:00;100102.09;;;-0.26;76.72
21273;BME280;36726;52.328;10.552;2022-12-11T10:07:31;100106.47;;;-0.25;76.80
21273;BME280;36726;52.328;10.552;2022-12-11T10:13:34;100109.06;;;-0.25;76.08
21273;BME280;36726;52.328;10.552;2022-12-11T10:18:33;100100.34;;;-0.27;75.73
21273;BME280;36726;52.328;10.552;2022-12-11T10:21:01;100101.97;;;-0.29;75.41
21273;BME280;36726;52.328;10.552;2022-12-11T10:23:33;100100.16;;;-0.30;75.38
21273;BME280;36726;52.328;10.552;2022-12-11T10:26:14;100097.63;;;-0.29;75.18
21273;BME280;36726;52.328;10.552;2022-12-11T10:28:41;100092.44;;;-0.29;75.21
21273;BME280;36726;52.328;10.552;2022-12-11T10:31:18;100090.75;;;-0.28;75.13
21273;BME280;36726;52.328;10.552;2022-12-11T10:33:53;100086.50;;;-0.26;74.89
21273;BME280;36726;52.328;10.552;2022-12-11T10:36:29;100083.84;;;-0.28;74.48
21273;BME280;36726;52.328;10.552;2022-12-11T10:38:56;100083.91;;;-0.26;74.33
21273;BME280;36726;52.328;10.552;2022-12-11T10:41:32;100095.94;;;-0.28;74.38
21273;BME280;36726;52.328;10.552;2022-12-11T10:44:16;100085.47;;;-0.30;74.71
21273;BME280;36726;52.328;10.552;2022-12-11T10:46:45;100088.06;;;-0.30;74.49
21273;BME280;36726;52.328;10.552;2022-12-11T10:49:27;100089.84;;;-0.29;74.71
21273;BME280;36726;52.328;10.552;2022-12-11T10:51:55;100094.16;;;-0.29;74.64
21273;BME280;36726;52.328;10.552;2022-12-11T10:54:35;100091.56;;;-0.29;74.88
21273;BME280;36726;52.328;10.552;2022-12-11T10:57:06;100091.56;;;-0.29;75.17
21273;BME280;36726;52.328;10.552;2022-12-11T10:59:43;100088.16;;;-0.28;74.73
21273;BME280;36726;52.328;10.552;2022-12-11T11:02:30;100089.09;;;-0.26;75.35
21273;BME280;36726;52.328;10.552;2022-12-11T11:05:00;100089.09;;;-0.26;75.05
21273;BME280;36726;52.328;10.552;2022-12-11T11:07:36;100085.69;;;-0.25;75.34
21273;BME280;36726;52.328;10.552;2022-12-11T11:10:15;100084.88;;;-0.24;75.13
21273;BME280;36726;52.328;10.552;2022-12-11T11:12:45;100090.88;;;-0.25;74.85
21273;BME280;36726;52.328;10.552;2022-12-11T11:15:18;100084.75;;;-0.27;74.83
21273;BME280;36726;52.328;10.552;2022-12-11T11:17:50;100079.63;;;-0.26;74.76
21273;BME280;36726;52.328;10.552;2022-12-11T11:20:24;100082.22;;;-0.26;75.02
21273;BME280;36726;52.328;10.552;2022-12-11T11:22:56;100083.09;;;-0.25;74.64
21273;BME280;36726;52.328;10.552;2022-12-11T11:25:25;100075.44;;;-0.22;74.78
21273;BME280;36726;52.328;10.552;2022-12-11T11:28:16;100076.31;;;-0.22;74.44
21273;BME280;36726;52.328;10.552;2022-12-11T11:30:55;100076.41;;;-0.20;74.78
21273;BME280;36726;52.328;10.552;2022-12-11T11:33:22;100068.69;;;-0.19;74.80
21273;BME280;36726;52.328;10.552;2022-12-11T11:36:22;100066.16;;;-0.17;74.41
21273;BME280;36726;52.328;10.552;2022-12-11T11:39:05;100063.56;;;-0.17;74.51
21273;BME280;36726;52.328;10.552;2022-12-11T11:41:45;100060.97;;;-0.17;74.55
21273;BME280;36726;52.328;10.552;2022-12-11T11:44:20;100060.13;;;-0.16;74.59
21273;BME280;36726;52.328;10.552;2022-12-11T11:46:58;100068.81;;;-0.16;73.96
21273;BME280;36726;52.328;10.552;2022-12-11T11:49:59;100074.91;;;-0.15;73.80
21273;BME280;36726;52.328;10.552;2022-12-11T11:55:18;100067.31;;;-0.11;74.04
21273;BME280;36726;52.328;10.552;2022-12-11T11:57:56;100064.81;;;-0.09;74.28
21273;BME280;36726;52.328;10.552;2022-12-11T12:00:28;100064.94;;;-0.06;74.04
21273;BME280;36726;52.328;10.552;2022-12-11T12:03:29;100063.38;;;-0.03;74.22
21273;BME280;36726;52.328;10.552;2022-12-11T12:11:59;100067.38;;;0.09;73.04
21273;BME280;36726;52.328;10.552;2022-12-11T12:17:31;100061.63;;;0.16;72.50
21273;BME280;36726;52.328;10.552;2022-12-11T12:23:01;100062.78;;;0.22;72.95
21273;BME280;36726;52.328;10.552;2022-12-11T12:31:16;100050.88;;;0.27;72.65
21273;BME280;36726;52.328;10.552;2022-12-11T12:36:35;100050.19;;;0.31;72.48
21273;BME280;36726;52.328;10.552;2022-12-11T12:47:49;100035.75;;;0.38;72.55
21273;BME280;36726;52.328;10.552;2022-12-11T12:50:21;100026.16;;;0.37;72.51
21273;BME280;36726;52.328;10.552;2022-12-11T12:52:50;100028.81;;;0.38;72.97
21273;BME280;36726;52.328;10.552;2022-12-11T13:00:40;100021.13;;;0.40;73.19
21273;BME280;36726;52.328;10.552;2022-12-11T13:03:25;100017.69;;;0.41;72.95
21273;BME280;36726;52.328;10.552;2022-12-11T13:08:49;100009.94;;;0.42;73.05
21273;BME280;36726;52.328;10.552;2022-12-11T13:11:19;100012.59;;;0.44;73.15
21273;BME280;36726;52.328;10.552;2022-12-11T13:14:04;100003.09;;;0.44;73.30
21273;BME280;36726;52.328;10.552;2022-12-11T13:16:37;100004.84;;;0.45;72.98
21273;BME280;36726;52.328;10.552;2022-12-11T13:19:33;99997.16;;;0.47;72.54
21273;BME280;36726;52.328;10.552;2022-12-11T13:24:46;99994.59;;;0.48;72.11
21273;BME280;36726;52.328;10.552;2022-12-11T13:27:38;99994.44;;;0.45;72.47
21273;BME280;36726;52.328;10.552;2022-12-11T13:32:34;100003.78;;;0.40;72.38
21273;BME280;36726;52.328;10.552;2022-12-11T13:35:04;100002.81;;;0.38;72.22
21273;BME280;36726;52.328;10.552;2022-12-11T13:37:35;100016.59;;;0.36;72.18
21273;BME280;36726;52.328;10.552;2022-12-11T13:40:25;100011.34;;;0.34;71.95
21273;BME280;36726;52.328;10.552;2022-12-11T13:43:01;100007.84;;;0.34;72.05
21273;BME280;36726;52.328;10.552;2022-12-11T13:45:46;100012.97;;;0.32;71.93
21273;BME280;36726;52.328;10.552;2022-12-11T13:48:22;100010.38;;;0.32;72.17
21273;BME280;36726;52.328;10.552;2022-12-11T13:50:52;100016.38;;;0.31;72.48
21273;BME280;36726;52.328;10.552;2022-12-11T13:53:20;100022.53;;;0.33;71.99
21273;BME280;36726;52.328;10.552;2022-12-11T13:56:03;100013.84;;;0.33;72.24
21273;BME280;36726;52.328;10.552;2022-12-11T13:58:34;100014.00;;;0.36;72.29
21273;BME280;36726;52.328;10.552;2022-12-11T14:01:14;100020.06;;;0.36;72.53
21273;BME280;36726;52.328;10.552;2022-12-11T14:03:53;100016.38;;;0.31;72.78
21273;BME280;36726;52.328;10.552;2022-12-11T14:06:21;100024.06;;;0.28;72.96
21273;BME280;36726;52.328;10.552;2022-12-11T14:08:50;100026.53;;;0.25;72.90
21273;BME280;36726;52.328;10.552;2022-12-11T14:11:24;100026.38;;;0.22;73.20
21273;BME280;36726;52.328;10.552;2022-12-11T14:13:57;100025.34;;;0.19;73.30
21273;BME280;36726;52.328;10.552;2022-12-11T14:16:25;100037.31;;;0.15;73.38
21273;BME280;36726;52.328;10.552;2022-12-11T14:18:55;100048.41;;;0.11;73.44
21273;BME280;36726;52.328;10.552;2022-12-11T14:21:25;100050.88;;;0.08;73.62